Landels-Hill Big Creek Reserve Entrance, California Weather observations

Data are for 10 minute period ending at time listed.
 Day   Time   Solar   Ave.   Ave.  Ave.  Vector  Max.   Baro.   Total    
  of    of     Rad.   Air    Rel.  Wind   Wind   Wind  Press.  Precip.   
Year   Day            Temp.  Hum.  Speed  Dir.   Gust                    
2014   (PST)  Kw/m2    F      %     mph   deg.    mph    mb.     in.     
-------------------------------------------------------------------------
 351   19:30   0.00   51.5    92    3.9    35     6.5   1015.8    0.01 
 351   19:40   0.00   51.5    90    4.6    34     7.9   1015.7    0.01 
 351   19:50   0.00   51.1    91    4.4    35     7.5   1015.9    0.00 
 351   20:00   0.00   51.0    92    4.8    23     7.8   1016.1    0.00 
 351   20:10   0.00   50.7    93    4.5     1     7.5   1016.2    0.00 
 351   20:20   0.00   50.6    94    4.7    25     8.4   1016.3    0.01 
 351   20:30   0.00   50.4    94    5.6    22    10.0   1016.2    0.00 
 351   20:40   0.00   50.3    95    4.8    20     8.5   1016.3    0.00 
 351   20:50   0.00   50.4    94    5.5     9     8.5   1016.4    0.00 
 351   21:00   0.00   50.4    94    3.3    21     8.5   1016.5    0.00 
 351   21:10   0.00   50.5    94    3.6     8     7.6   1016.5    0.00 
 351   21:20   0.00   50.5    94    4.6    21     7.3   1016.5    0.00 
 351   21:30   0.00   50.4    94    4.3    20     7.8   1016.5    0.00 
 351   21:40   0.00   50.4    95    3.9    27     6.4   1016.4    0.00 
 351   21:50   0.00   50.5    95    3.2    28     6.7   1016.4    0.00 
 351   22:00   0.00   50.5    95    2.1    51     5.0   1016.5    0.01 
 351   22:10   0.00   50.6    95    1.9    48     5.1   1016.5    0.00 
 351   22:20   0.00   50.6    95    2.3    21     5.3   1016.4    0.01 
 351   22:30   0.00   50.8    95    3.5   354     8.0   1016.2    0.00 
 351   22:40   0.00   50.6    95    3.1    18     5.7   1016.2    0.00 
 351   22:50   0.00   50.6    96    1.7    25     4.5   1016.2    0.00 
 351   23:00   0.00   50.7    96    2.0    52     3.9   1016.2    0.00 
 351   23:10   0.00   50.7    96    1.7    54     4.4   1016.1    0.01 
 351   23:20   0.00   50.8    96    2.1    43     4.7   1016.0    0.00 
 351   23:30   0.00   51.0    96    1.2    27     3.8   1016.0    0.00 
 351   23:40   0.00   51.1    96    2.2    16     3.9   1015.8    0.00 
 351   23:50   0.00   51.1    96    2.8    15     5.9   1015.7    0.00 
 352    0:00   0.00   51.2    96    3.1    35     5.3   1015.6    0.00 
 352    0:10   0.00   51.5    96    3.3   359     6.3   1015.5    0.00 
 352    0:20   0.00   51.5    96    2.1    24     4.7   1015.5    0.00 
 352    0:30   0.00   51.4    96    2.2    38     4.6   1015.4    0.00 
 352    0:40   0.00   51.4    96    1.9    33     5.6   1015.4    0.00 
 352    0:50   0.00   51.4    96    1.7    26     6.3   1015.4    0.00 
 352    1:00   0.00   51.5    96    1.9    45     4.7   1015.3    0.00 
 352    1:10   0.00   51.5    96    1.1    25     3.1   1015.2    0.00 
 352    1:20   0.00   51.5    96    1.9    51     3.6   1015.0    0.00 
 352    1:30   0.00   51.5    96    2.3    24     5.4   1015.0    0.00 
 352    1:40   0.00   51.7    96    2.6     2     5.8   1015.0    0.00 
 352    1:50   0.00   51.8    96    2.0    51     3.8   1015.0    0.00 
 352    2:00   0.00   51.9    96    3.0     7     6.1   1015.1    0.00 
 352    2:10   0.00   51.9    96    2.0     2     6.0   1015.2    0.00 
 352    2:20   0.00   52.0    96    1.5    56     3.1   1015.3    0.00 
 352    2:30   0.00   52.0    96    1.3    44     3.4   1015.3    0.00 
 352    2:40   0.00   52.2    96    0.9     3     3.4   1015.2    0.00 
 352    2:50   0.00   52.2    96    1.3   354     5.5   1015.3    0.00 
 352    3:00   0.00   52.4    97    0.8    18     2.3   1015.4    0.01 
 352    3:10   0.00   52.5    97    0.9    12     2.9   1015.5    0.00 
 352    3:20   0.00   52.6    97    0.7    47     2.0   1015.5    0.00 
 352    3:30   0.00   52.5    97    1.3    24     3.9   1015.5    0.00 
 352    3:40   0.00   52.3    97    3.3    24     6.6   1015.3    0.01 
 352    3:50   0.00   52.5    97    4.1    25     6.8   1015.2    0.00 
 352    4:00   0.00   52.6    97    2.3    19     4.3   1015.3    0.00 
 352    4:10   0.00   52.6    97    1.5    28     3.9   1015.2    0.00 
 352    4:20   0.00   52.5    97    1.7    55     3.3   1015.1    0.00 
 352    4:30   0.00   52.6    97    2.5    50     4.5   1015.1    0.00 
 352    4:40   0.00   53.0    97    0.8     9     2.8   1015.2    0.00 
 352    4:50   0.00   52.7    97    1.1    41     2.9   1015.3    0.00 
 352    5:00   0.00   52.8    97    1.6    14     4.6   1015.5    0.00 
 352    5:10   0.00   52.9    97    0.3    32     1.9   1015.6    0.00 
 352    5:20   0.00   52.8    97    1.2    40     2.6   1015.7    0.00 
 352    5:30   0.00   52.9    97    0.8    23     2.8   1015.8    0.00 
 352    5:40   0.00   52.8    97    2.0     0     3.7   1015.8    0.01 
 352    5:50   0.00   52.7    97    1.3    22     3.5   1015.8    0.00 
 352    6:00   0.00   52.9    97    1.5    11     3.1   1015.8    0.00 
 352    6:10   0.00   52.9    97    1.4    26     3.4   1016.0    0.00 
 352    6:20   0.00   52.9    97    1.2    14     2.8   1016.0    0.00 
 352    6:30   0.00   52.9    97    0.8    50     2.5   1016.3    0.00 
 352    6:40   0.00   53.0    97    0.8     9     2.6   1016.6    0.00 
 352    6:50   0.00   52.9    97    0.7    46     2.1   1016.7    0.00 
 352    7:00   0.00   52.9    97    0.8    45     2.1   1017.0    0.00 
 352    7:10   0.00   53.0    97    0.9    11     2.7   1017.3    0.01 
 352    7:20   0.01   53.1    97    0.8     4     2.2   1017.3    0.00 
 352    7:30   0.01   53.0    97    0.8    62     2.3   1017.4    0.00 
 352    7:40   0.01   53.1    97    0.5    34     2.0   1017.4    0.00 
 352    7:50   0.03   53.2    97    0.6    15     1.9   1017.3    0.00 
 352    8:00   0.04   53.4    97    0.0   338     1.8   1017.3    0.00 
 352    8:10   0.03   53.8    97    0.3    15     1.1   1017.5    0.00 
 352    8:20   0.03   53.5    97    0.6    25     1.3   1017.6    0.00 
 352    8:30   0.04   53.4    97    1.0    13     2.4   1017.6    0.00 
 352    8:40   0.05   53.5    97    1.2    19     1.9   1017.6    0.00 
 352    8:50   0.03   53.6    97    0.8    13     2.2   1017.7    0.00 
 352    9:00   0.05   53.5    97    0.7    50     2.3   1017.8    0.00 
 352    9:10   0.07   53.7    97    0.5    49     1.5   1017.9    0.00 
 352    9:20   0.07   54.0    97    0.4    56     1.8   1018.2    0.00 
 352    9:30   0.07   54.4    97    0.1   338     1.2   1018.3    0.00 
 352    9:40   0.07   54.6    97    0.0     0     0.0   1018.4    0.00 
 352    9:50   0.09   54.6    96    0.1   109     1.2   1018.5    0.00 
 352   10:00   0.09   55.1    96    0.5   130     1.5   1018.5    0.00 
 352   10:10   0.12   55.4    94    0.2    15     1.4   1018.7    0.00 
 352   10:20   0.13   56.0    93    0.4    35     2.0   1018.8    0.00 
 352   10:30   0.10   56.0    90    1.0    29     2.8   1018.7    0.00 
 352   10:40   0.11   55.9    88    1.7    10     3.7   1018.7    0.00 
 352   10:50   0.18   56.4    88    0.6   326     2.2   1018.7    0.00 
 352   11:00   0.15   57.1    85    0.5    40     2.6   1018.5    0.00 
 352   11:10   0.20   57.1    84    0.5     4     2.0   1018.3    0.00 
 352   11:20   0.41   57.7    82    1.6   281     4.1   1018.2    0.00 
 352   11:30   0.31   58.4    79    0.9   317     3.9   1018.1    0.00 
 352   11:40   0.27   58.6    79    1.1   341     2.9   1018.2    0.00 
 352   11:50   0.23   58.2    78    1.3   317     3.8   1018.2    0.00 
 352   12:00   0.26   58.2    78    1.5   291     4.1   1018.1    0.00 
 352   12:10   0.35   58.6    77    1.5   288     5.1   1018.1    0.00 
 352   12:20   0.40   58.8    76    1.7   281     4.8   1018.0    0.00 
 352   12:30   0.41   59.3    75    2.2   276     5.9   1018.0    0.00 
 352   12:40   0.50   59.9    77    1.0   262     4.6   1018.2    0.00 
 352   12:50   0.51   60.5    74    2.4   276     5.5   1018.2    0.00 
 352   13:00   0.27   60.0    75    1.2   273     3.7   1018.2    0.00 
 352   13:10   0.38   59.5    75    1.4   261     5.8   1018.1    0.00 
 352   13:20   0.56   59.6    74    1.8   236     3.9   1017.9    0.00 
 352   13:30   0.52   60.1    73    2.1   264     5.7   1017.9    0.00 
 352   13:40   0.36   60.0    73    2.1   254     4.2   1018.0    0.00 
 352   13:50   0.27   59.6    74    0.9   223     3.0   1017.9    0.00 
 352   14:00   0.20   59.7    74    0.6   223     3.1   1017.8    0.00 
 352   14:10   0.20   59.1    75    0.9   232     2.7   1017.5    0.00 
 352   14:20   0.24   59.0    75    1.4   260     4.2   1017.1    0.00 
 352   14:30   0.28   59.2    76    1.1   274     3.1   1017.0    0.00 
 352   14:40   0.35   59.7    74    1.5   230     4.2   1017.0    0.00 
 352   14:50   0.34   59.6    75    1.6   246     5.0   1017.3    0.00 
 352   15:00   0.26   59.6    74    2.3   240     4.0   1017.3    0.00 
 352   15:10   0.29   59.8    74    1.0   186     2.4   1017.4    0.00 
 352   15:20   0.28   60.5    73    1.1   232     3.8   1017.5    0.00 
 352   15:30   0.15   59.8    75    0.9   225     3.7   1017.5    0.00 
 352   15:40   0.10   59.6    75    0.9   223     2.5   1017.5    0.00 
 352   15:50   0.09   59.2    76    0.5   206     2.0   1017.3    0.00 
 352   16:00   0.09   59.1    76    0.2   208     1.0   1017.2    0.00 
 352   16:10   0.11   59.1    76    0.2   185     1.3   1017.0    0.00 
 352   16:20   0.08   58.9    76    0.5   252     1.8   1016.9    0.00 
 352   16:30   0.05   58.5    77    0.4   289     2.0   1016.9    0.00 
 352   16:40   0.02   58.3    79    0.1   341     0.8   1017.0    0.00 
 352   16:50   0.01   57.7    82    0.5   342     1.8   1017.0    0.00 
 352   17:00   0.01   56.5    86    1.3   345     2.6   1016.9    0.00 
 352   17:10   0.00   55.8    89    0.8    24     1.9   1016.9    0.00 
 352   17:20   0.00   55.3    90    0.9    71     2.0   1017.1    0.00 
 352   17:30   0.00   55.0    90    1.0    47     3.1   1017.4    0.00 
 352   17:40   0.00   54.5    92    1.4    35     2.9   1017.5    0.00 
 352   17:50   0.00   54.2    92    1.2    50     3.7   1017.6    0.00 
 352   18:00   0.00   53.7    92    1.8    28     4.4   1017.8    0.00 
 352   18:10   0.00   53.5    93    2.0    36     3.7   1018.0    0.00 
 352   18:20   0.00   53.2    93    2.1    32     4.2   1018.3    0.00 
 352   18:30   0.00   52.8    94    2.2    47     4.3   1018.4    0.00 
 352   18:40   0.00   52.7    94    3.0     6     6.5   1018.5    0.00 
 352   18:50   0.00   52.6    94    2.5    14     5.5   1018.6    0.00 
 352   19:00   0.00   52.6    94    2.1    13     5.0   1018.7    0.00 
 352   19:10   0.00   52.6    94    2.8    28     5.7   1018.9    0.00 
 352   19:20   0.00   52.6    94    3.3     6     7.6   1018.8    0.00 

Return to Big Creek Reserve Entrance graphs page.


Western Regional Climate Center,wrcc@dri.edu